PADK Airport (Adak) Information

FAA: ADK - ICAO: PADK

PADK Airport Location

State Alaska
County Aleutians West
City Adak Island
PADK Airport is 0 miles west of Adak Island, AK.
Latitude 51-53-00.8954N
Longitude 176-38-32.9277W
Elevation 19ft

PADK Airport METARs

METAR PADK 240856Z AUTO 23004KT 10SM -RA FEW016 OVC033 08/07 A2985 RMK AO2 SLP109 P0001 60006 T00780072 56014
Altimeter 29.85"
Temperature 7.8°C (46.0°F)
Wind 230° at 4KT
Clouds few at 1,600ft overcast at 3,300ft
Visibility 10.0mi
Time observed: 2021-09-24T08:56:00Z

PADK Airport Details

Status Operational
Activation April 1949
Ownership Public
Usage Public
Chart W ALEUTIAN ISLS
ATC on-site No
Beacon schedule sunset-sunrise
Beacon color clear green

PADK Airport Contacts

Owner ALASKA DOT&PF SOUTHCOAST REGION
Owner address 1500 ANTON LARSON, KODIAK, AK 99615-2506
Owner phone 907-465-1784
Manager DANIEL STARR
Manager address 2221 ELM ST., RAWLINS, WY 82301
Manager phone 307-324-8225

PADK Airport (Adak) Radio Frequencies

PADK (Airport) Radio Frequencies

UNICOM N/A
Common traffic advisory frequency (CTAF) 122.9